MDT,Max TemperatureF,Mean TemperatureF,Min TemperatureF,Max Dew PointF,MeanDew PointF,Min DewpointF,Max Humidity, Mean Humidity, Min Humidity, Max Sea Level PressureIn, Mean Sea Level PressureIn, Min Sea Level PressureIn, Max VisibilityMiles, Mean VisibilityMiles, Min VisibilityMiles, Max Wind SpeedMPH, Mean Wind SpeedMPH, Max Gust SpeedMPH,PrecipitationIn, CloudCover, Events, WindDirDegrees
2013-3-1,50,36,21,33,28,16,78,64,50,30.27,30.22,30.18,10,10,10,23,11,29,0.00,2,,232
2013-3-2,52,43,34,31,29,28,76,61,46,30.20,30.06,29.83,10,10,10,20,9,24,T,4,Rain,228
2013-3-3,42,30,18,33,23,15,85,65,44,29.99,29.76,29.62,10,5,0,41,18,48,0.03,7,Fog-Snow,278
2013-3-4,20,11,2,16,11,-1,92,80,67,30.47,30.22,29.89,10,4,0,29,15,41,0.06,6,Fog-Snow,306
2013-3-5,28,14,0,20,10,-2,87,69,50,30.43,30.27,30.09,10,10,10,14,7,16,0.00,2,,93
2013-3-6,37,28,18,29,20,12,85,69,52,30.07,29.86,29.68,10,9,2,13,6,15,T,4,Snow,119
2013-3-7,41,32,22,27,23,17,100,76,52,30.13,29.94,29.74,10,6,0,16,5,20,0.05,5,Fog-Snow,236
2013-3-8,41,30,19,30,21,15,88,68,48,30.10,30.01,29.92,10,10,10,14,4,16,0.00,1,,154
2013-3-9,38,28,18,23,20,16,92,72,52,30.30,30.17,30.01,10,10,10,18,8,26,0.00,2,,262
2013-3-10,47,34,20,27,21,14,77,57,37,30.26,30.14,29.99,10,10,10,23,8,26,0.00,2,,247
2013-3-11,36,27,18,27,22,17,92,78,64,30.40,30.15,30.00,10,4,0,17,10,28,0.03,7,Fog-Snow,302
2013-3-12,42,29,16,31,21,13,92,72,52,30.39,30.21,30.03,10,10,10,23,11,29,0.01,6,Rain,191
2013-3-13,57,46,34,35,31,29,76,56,36,30.12,30.05,30.01,10,10,10,25,14,29,0.00,1,,241
2013-3-14,56,46,36,40,32,29,76,59,41,30.14,30.05,29.86,10,10,10,20,9,24,0.00,2,,217
2013-3-15,55,40,24,30,28,25,85,60,35,30.07,29.94,29.84,10,10,10,32,12,41,T,3,,287
2013-3-16,46,35,23,29,25,21,100,75,49,30.09,29.94,29.65,10,7,1,17,6,22,T,6,,74
2013-3-17,38,23,8,32,19,5,92,81,69,30.06,29.71,29.47,10,7,1,35,13,46,0.08,7,Rain-Snow,300
2013-3-18,36,21,6,22,14,3,88,63,38,30.08,29.95,29.76,10,8,1,31,12,43,T,6,Snow,247
2013-3-19,34,25,16,19,16,11,92,66,39,30.35,30.17,29.98,10,6,0,14,6,15,0.04,5,Fog-Snow,294
2013-3-20,54,37,20,31,21,11,76,55,33,30.18,29.77,29.52,10,10,10,32,12,43,T,3,,167
2013-3-21,42,33,24,31,16,5,64,43,21,29.90,29.71,29.56,10,10,10,24,12,31,T,6,Rain,279
2013-3-22,27,19,11,23,17,12,96,82,68,30.29,29.99,29.83,10,3,1,20,10,24,0.03,8,Snow,297
2013-3-23,26,13,0,13,7,-3,92,71,50,30.41,30.32,30.12,10,10,6,20,9,29,0.00,3,Snow,275
2013-3-24,30,19,7,9,6,0,83,56,29,30.43,30.37,30.24,10,10,8,14,6,18,0.00,2,,262
2013-3-25,46,29,11,15,8,4,76,48,20,30.34,30.18,30.04,10,10,10,20,7,23,0.00,0,,162
2013-3-26,48,34,19,18,15,12,77,53,28,30.04,30.01,29.95,10,10,10,12,5,20,0.00,1,,136
2013-3-27,56,39,22,24,20,16,81,54,26,30.05,30.01,29.97,10,10,10,12,6,16,0.00,1,,114
2013-3-28,58,42,26,35,27,21,81,56,30,30.09,30.04,30.00,10,10,10,14,5,17,T,4,,127
2013-3-29,54,43,32,33,29,28,82,60,38,30.13,30.08,30.03,10,10,10,18,8,25,0.00,5,,257
2013-3-30,55,44,32,29,24,20,75,51,26,30.19,30.15,30.05,10,10,10,22,9,29,0.00,3,,294
2013-3-31,51,39,26,27,23,20,72,53,33,30.17,30.10,30.00,10,10,10,21,9,26,0.00,4,,297